createdAt,value
2023-02-24T00:02:07.087Z,48.49
2023-02-24T00:04:41.673Z,49.04
2023-02-24T00:07:11.426Z,48.84
2023-02-24T00:09:40.542Z,48.91
2023-02-24T00:12:13.982Z,48.66
2023-02-24T00:14:46.781Z,48.77
2023-02-24T00:17:15.667Z,48.99
2023-02-24T00:19:44.442Z,48.96
2023-02-24T00:22:14.188Z,48.44
2023-02-24T00:24:42.966Z,48.70
2023-02-24T00:27:14.375Z,48.94
2023-02-24T00:29:42.787Z,49.24
2023-02-24T00:32:13.837Z,49.15
2023-02-24T00:34:42.994Z,49.01
2023-02-24T00:37:11.433Z,49.06
2023-02-24T00:39:42.437Z,49.04
2023-02-24T00:42:10.787Z,49.35
2023-02-24T00:44:45.111Z,49.67
2023-02-24T00:47:14.522Z,49.64
2023-02-24T00:49:43.703Z,49.74
2023-02-24T00:52:22.011Z,49.77
2023-02-24T00:54:51.773Z,50.04
2023-02-24T00:57:22.115Z,49.90
2023-02-24T00:59:52.531Z,49.65
2023-02-24T01:02:22.255Z,49.61
2023-02-24T01:04:51.941Z,49.71
2023-02-24T01:07:20.325Z,49.73
2023-02-24T01:09:51.474Z,49.55
2023-02-24T01:12:38.173Z,49.58
2023-02-24T01:15:09.900Z,49.35
2023-02-24T01:17:38.961Z,49.47
2023-02-24T01:20:23.122Z,49.65
2023-02-24T01:22:58.472Z,49.41
2023-02-24T01:25:27.757Z,49.53
2023-02-24T01:27:56.001Z,49.64
2023-02-24T01:30:24.447Z,49.84
2023-02-24T01:32:53.855Z,49.74
2023-02-24T01:35:22.199Z,49.63
2023-02-24T01:37:50.758Z,50.07
2023-02-24T01:40:21.982Z,49.80
2023-02-24T01:42:51.096Z,49.51
2023-02-24T01:45:23.644Z,49.61
2023-02-24T01:47:52.846Z,49.68
2023-02-24T01:50:29.135Z,49.95
2023-02-24T01:53:02.445Z,50.87
2023-02-24T01:55:52.959Z,50.64
2023-02-24T01:58:26.401Z,51.23
2023-02-24T02:00:54.838Z,51.70
2023-02-24T02:03:33.686Z,53.39
2023-02-24T02:06:08.510Z,53.09
2023-02-24T02:08:38.047Z,53.95
2023-02-24T02:11:09.930Z,53.68
2023-02-24T02:13:43.949Z,54.50
2023-02-24T02:16:32.995Z,54.80
2023-02-24T02:19:22.548Z,54.80
2023-02-24T02:22:09.444Z,55.10
2023-02-24T02:25:08.365Z,55.60
2023-02-24T02:28:17.462Z,55.14
2023-02-24T02:31:21.215Z,54.51
2023-02-24T02:33:55.860Z,54.94
2023-02-24T02:36:33.647Z,55.11
2023-02-24T02:39:17.790Z,54.60
2023-02-24T02:42:19.789Z,55.19
2023-02-24T02:44:57.075Z,55.13
2023-02-24T02:47:39.227Z,55.67
2023-02-24T02:50:27.869Z,56.23
2023-02-24T02:53:03.845Z,56.16
2023-02-24T02:55:39.737Z,56.50
2023-02-24T02:58:15.631Z,56.83
2023-02-24T03:01:03.410Z,57.34
2023-02-24T03:03:41.380Z,57.52
2023-02-24T03:06:18.076Z,57.73
2023-02-24T03:09:02.135Z,57.79
2023-02-24T03:11:33.361Z,58.71
2023-02-24T03:14:03.641Z,58.54
2023-02-24T03:16:34.862Z,59.19
2023-02-24T03:19:09.986Z,58.92
2023-02-24T03:21:53.761Z,59.58
2023-02-24T03:24:22.003Z,59.25
2023-02-24T03:27:07.751Z,59.84
2023-02-24T03:29:51.565Z,59.50
2023-02-24T03:32:27.743Z,59.49
2023-02-24T03:35:05.357Z,59.78
2023-02-24T03:37:34.457Z,59.97
2023-02-24T03:40:15.317Z,59.82
2023-02-24T03:42:53.857Z,59.94
2023-02-24T03:45:24.004Z,59.72
2023-02-24T03:47:54.893Z,60.47
2023-02-24T03:50:23.642Z,60.11
2023-02-24T03:53:31.555Z,59.99
2023-02-24T03:56:18.534Z,60.23
2023-02-24T03:59:03.256Z,59.75
2023-02-24T04:01:43.320Z,60.30
2023-02-24T04:04:29.494Z,60.07
2023-02-24T04:07:36.601Z,60.48
2023-02-24T04:10:13.661Z,60.50
2023-02-24T04:13:29.297Z,59.74
2023-02-24T04:16:17.751Z,59.97
2023-02-24T04:18:51.936Z,59.92
2023-02-24T04:21:23.815Z,59.56
2023-02-24T04:23:52.778Z,59.65
2023-02-24T04:26:22.086Z,60.42
2023-02-24T04:28:53.103Z,60.00
2023-02-24T04:31:24.034Z,59.87
2023-02-24T04:33:54.162Z,59.79
2023-02-24T04:36:23.083Z,60.30
2023-02-24T04:38:51.339Z,60.08
2023-02-24T04:41:23.064Z,60.25
2023-02-24T04:43:51.983Z,60.47
2023-02-24T04:46:24.192Z,60.77
2023-02-24T04:48:52.446Z,60.66
2023-02-24T04:51:21.758Z,61.20
2023-02-24T04:53:51.232Z,61.22
2023-02-24T04:56:20.154Z,61.32
2023-02-24T04:58:48.337Z,61.67
2023-02-24T05:01:16.522Z,61.58
2023-02-24T05:03:44.735Z,62.21
2023-02-24T05:06:19.417Z,62.44
2023-02-24T05:08:48.128Z,61.68
2023-02-24T05:11:19.446Z,61.93
2023-02-24T05:13:48.150Z,62.55
2023-02-24T05:16:21.123Z,62.05
2023-02-24T05:18:50.430Z,62.94
2023-02-24T05:21:37.179Z,63.22
2023-02-24T05:24:07.450Z,63.34
2023-02-24T05:26:37.914Z,63.13
2023-02-24T05:29:07.678Z,63.77
2023-02-24T05:31:36.459Z,64.13
2023-02-24T05:34:08.520Z,63.59
2023-02-24T05:36:41.142Z,63.47
2023-02-24T05:39:13.488Z,62.69
2023-02-24T05:41:43.858Z,62.55
2023-02-24T05:44:29.251Z,62.63
2023-02-24T05:47:01.406Z,62.22
2023-02-24T05:49:34.679Z,62.49
2023-02-24T05:52:09.630Z,62.53
2023-02-24T05:54:46.134Z,61.41
2023-02-24T05:57:21.915Z,61.22
2023-02-24T05:59:51.809Z,61.84
2023-02-24T06:02:28.249Z,61.73
2023-02-24T06:04:56.629Z,61.54
2023-02-24T06:07:27.248Z,60.69
2023-02-24T06:09:58.087Z,61.20
2023-02-24T06:12:32.610Z,60.46
2023-02-24T06:15:01.212Z,60.45
2023-02-24T06:17:30.153Z,60.46
2023-02-24T06:19:58.689Z,60.78
2023-02-24T06:22:28.245Z,60.28
2023-02-24T06:24:57.659Z,60.07
2023-02-24T06:27:26.227Z,60.53
2023-02-24T06:29:55.841Z,60.39
2023-02-24T06:32:27.412Z,60.67
2023-02-24T06:34:58.009Z,60.82
2023-02-24T06:37:26.326Z,60.66
2023-02-24T06:39:54.825Z,60.89
2023-02-24T06:42:23.680Z,61.81
2023-02-24T06:44:52.031Z,62.05
2023-02-24T06:47:20.389Z,62.33
2023-02-24T06:49:50.570Z,62.11
2023-02-24T06:52:19.594Z,62.98
2023-02-24T06:54:50.475Z,62.84
2023-02-24T06:57:18.823Z,63.04
2023-02-24T06:59:47.026Z,63.62
2023-02-24T07:02:18.447Z,63.86
2023-02-24T07:04:46.791Z,63.78
2023-02-24T07:07:15.170Z,64.45
2023-02-24T07:09:46.162Z,64.30
2023-02-24T07:12:21.733Z,64.43
2023-02-24T07:14:51.214Z,65.25
2023-02-24T07:17:24.134Z,64.98
2023-02-24T07:19:55.404Z,65.48
2023-02-24T07:22:25.950Z,64.90
2023-02-24T07:25:01.104Z,65.59
2023-02-24T07:27:29.408Z,65.40
2023-02-24T07:29:57.664Z,65.81
2023-02-24T07:32:26.352Z,65.10
2023-02-24T07:34:54.603Z,65.00
2023-02-24T07:37:24.432Z,65.41
2023-02-24T07:39:52.760Z,65.57
2023-02-24T07:42:21.065Z,65.26
2023-02-24T07:44:49.931Z,65.69
2023-02-24T07:47:18.378Z,65.26
2023-02-24T07:49:46.664Z,65.63
2023-02-24T07:52:14.990Z,66.04
2023-02-24T07:54:43.174Z,66.18
2023-02-24T07:57:14.550Z,66.25
2023-02-24T07:59:46.009Z,65.55
2023-02-24T08:02:14.685Z,66.32
2023-02-24T08:04:49.371Z,66.05
2023-02-24T08:07:25.554Z,66.34
2023-02-24T08:10:12.618Z,66.11
2023-02-24T08:12:43.874Z,66.77
2023-02-24T08:15:24.539Z,66.54
2023-02-24T08:17:57.467Z,65.92
2023-02-24T08:20:28.206Z,66.73
2023-02-24T08:22:57.292Z,66.48
2023-02-24T08:25:39.022Z,66.49
2023-02-24T08:28:12.322Z,67.07
2023-02-24T08:30:48.135Z,66.46
2023-02-24T08:33:22.834Z,67.01
2023-02-24T08:36:02.753Z,66.87
2023-02-24T08:38:42.652Z,66.13
2023-02-24T08:41:18.689Z,66.52
2023-02-24T08:43:48.488Z,67.80
2023-02-24T08:46:22.127Z,66.86
2023-02-24T08:48:58.639Z,67.63
2023-02-24T08:51:30.148Z,67.56
2023-02-24T08:54:01.446Z,67.52
2023-02-24T08:56:35.324Z,67.91
2023-02-24T08:59:07.582Z,68.42
2023-02-24T09:01:41.048Z,67.78
2023-02-24T09:04:19.868Z,68.46
2023-02-24T09:07:10.779Z,68.21
2023-02-24T09:09:43.004Z,69.04
2023-02-24T09:12:22.663Z,68.97
2023-02-24T09:14:56.290Z,69.59
2023-02-24T09:17:46.275Z,68.55
2023-02-24T09:20:39.526Z,69.24
2023-02-24T09:23:10.631Z,69.56
2023-02-24T09:25:41.841Z,69.23
2023-02-24T09:28:20.768Z,69.26
2023-02-24T09:30:54.565Z,69.34
2023-02-24T09:33:42.324Z,69.03
2023-02-24T09:36:28.803Z,69.36
2023-02-24T09:39:02.451Z,70.09
2023-02-24T09:41:54.849Z,70.17
2023-02-24T09:44:49.324Z,70.28
2023-02-24T09:47:41.202Z,69.97
2023-02-24T09:50:59.673Z,70.48
2023-02-24T09:53:20.116Z,70.58
2023-02-24T09:56:01.306Z,70.40
2023-02-24T09:58:54.973Z,69.80
2023-02-24T10:01:40.562Z,70.61
2023-02-24T10:04:41.460Z,70.37
2023-02-24T10:07:28.897Z,70.96
2023-02-24T10:10:20.594Z,70.77
2023-02-24T10:12:53.491Z,70.82
2023-02-24T10:15:46.674Z,71.58
2023-02-24T10:18:32.086Z,70.96
2023-02-24T10:21:49.682Z,71.02
2023-02-24T10:24:30.115Z,71.42
2023-02-24T10:27:09.401Z,70.85
2023-02-24T10:30:06.546Z,71.45
2023-02-24T10:33:09.564Z,71.50
2023-02-24T10:35:38.649Z,71.35
2023-02-24T10:38:07.039Z,71.28
2023-02-24T10:40:47.607Z,71.13
2023-02-24T10:43:21.329Z,70.66
2023-02-24T10:45:49.969Z,70.83
2023-02-24T10:48:40.545Z,71.47
2023-02-24T10:51:32.750Z,70.97
2023-02-24T10:54:44.610Z,70.90
2023-02-24T10:57:34.758Z,71.49
2023-02-24T11:00:06.882Z,71.60
2023-02-24T11:03:02.312Z,71.66
2023-02-24T11:06:08.159Z,71.29
2023-02-24T11:08:45.062Z,70.81
2023-02-24T11:11:31.603Z,71.37
2023-02-24T11:14:21.757Z,71.19
2023-02-24T11:17:14.894Z,71.50
2023-02-24T11:19:51.431Z,71.02
2023-02-24T11:22:25.701Z,71.68
2023-02-24T11:24:54.684Z,71.44
2023-02-24T11:27:27.288Z,71.30
2023-02-24T11:30:22.910Z,71.29
2023-02-24T11:33:09.373Z,71.90
2023-02-24T11:36:06.466Z,71.51
2023-02-24T11:38:44.185Z,71.09
2023-02-24T11:41:28.473Z,71.57
2023-02-24T11:44:05.005Z,71.88
2023-02-24T11:46:48.231Z,71.83
2023-02-24T11:49:44.326Z,71.17
2023-02-24T11:52:35.978Z,71.28
2023-02-24T11:55:13.511Z,71.85
2023-02-24T11:57:51.459Z,71.77
2023-02-24T12:00:22.451Z,71.36
2023-02-24T12:03:07.904Z,71.68
2023-02-24T12:05:42.912Z,71.77
2023-02-24T12:08:27.241Z,71.81
2023-02-24T12:11:23.096Z,72.47
2023-02-24T12:14:36.083Z,71.81
2023-02-24T12:17:11.425Z,72.09
2023-02-24T12:19:52.522Z,71.93
2023-02-24T12:22:20.790Z,72.51
2023-02-24T12:24:52.430Z,71.80
2023-02-24T12:27:47.292Z,72.40
2023-02-24T12:30:58.367Z,72.37
2023-02-24T12:33:43.780Z,71.67
2023-02-24T12:36:44.508Z,72.08
2023-02-24T12:39:30.631Z,72.37
2023-02-24T12:42:21.926Z,71.97
2023-02-24T12:45:18.592Z,72.19
2023-02-24T12:48:11.475Z,72.67
2023-02-24T12:51:04.884Z,72.35
2023-02-24T12:53:35.892Z,72.80
2023-02-24T12:56:20.217Z,72.32
2023-02-24T12:58:53.873Z,72.59
2023-02-24T13:01:45.117Z,72.07
2023-02-24T13:04:22.408Z,72.05
2023-02-24T13:07:05.896Z,72.74
2023-02-24T13:10:01.492Z,72.55
2023-02-24T13:12:40.892Z,72.10
2023-02-24T13:15:20.885Z,72.48
2023-02-24T13:17:52.436Z,72.24
2023-02-24T13:20:31.336Z,73.19
2023-02-24T13:23:01.040Z,73.05
2023-02-24T13:25:38.099Z,72.87
2023-02-24T13:28:23.672Z,72.69
2023-02-24T13:31:06.084Z,73.08
2023-02-24T13:33:40.373Z,72.76
2023-02-24T13:36:22.452Z,72.82
2023-02-24T13:39:07.665Z,72.69
2023-02-24T13:41:41.929Z,73.73
2023-02-24T13:44:27.018Z,72.85
2023-02-24T13:47:16.630Z,73.67
2023-02-24T13:49:57.885Z,73.58
2023-02-24T13:52:55.876Z,73.34
2023-02-24T13:55:50.264Z,73.02
2023-02-24T13:58:26.659Z,73.48
2023-02-24T14:01:14.938Z,73.43
2023-02-24T14:03:50.869Z,73.50
2023-02-24T14:06:27.595Z,73.79
2023-02-24T14:09:04.457Z,73.58
2023-02-24T14:11:37.634Z,73.80
2023-02-24T14:14:06.712Z,73.60
2023-02-24T14:16:40.578Z,73.37
2023-02-24T14:19:17.104Z,73.37
2023-02-24T14:21:52.391Z,73.33
2023-02-24T14:24:21.502Z,74.12
2023-02-24T14:26:58.389Z,73.70
2023-02-24T14:29:38.368Z,73.93
2023-02-24T14:32:22.461Z,74.01
2023-02-24T14:34:51.398Z,73.80
2023-02-24T14:37:25.197Z,73.91
2023-02-24T14:39:59.028Z,73.50
2023-02-24T14:42:28.840Z,73.73
2023-02-24T14:44:59.504Z,74.12
2023-02-24T14:47:29.677Z,74.51
2023-02-24T14:50:00.873Z,74.44
2023-02-24T14:52:43.906Z,74.06
2023-02-24T14:55:22.185Z,74.47
2023-02-24T14:57:58.862Z,73.74
2023-02-24T15:01:07.311Z,73.59
2023-02-24T15:03:51.145Z,74.03
2023-02-24T15:06:33.171Z,73.67
2023-02-24T15:09:08.813Z,73.57
2023-02-24T15:11:38.139Z,74.17
2023-02-24T15:14:19.381Z,74.44
2023-02-24T15:16:52.482Z,74.66
2023-02-24T15:19:44.943Z,74.63
2023-02-24T15:22:35.469Z,74.21
2023-02-24T15:25:33.822Z,73.67
2023-02-24T15:28:22.357Z,74.06
2023-02-24T15:31:11.043Z,73.76
2023-02-24T15:33:54.016Z,73.92
2023-02-24T15:36:35.066Z,74.10
2023-02-24T15:39:11.431Z,74.20
2023-02-24T15:41:43.171Z,73.98
2023-02-24T15:44:31.863Z,74.25
2023-02-24T15:47:02.204Z,74.11
2023-02-24T15:49:30.437Z,74.27
2023-02-24T15:52:02.128Z,74.23
2023-02-24T15:54:37.570Z,74.17
2023-02-24T15:57:06.564Z,73.94
2023-02-24T15:59:34.865Z,73.87
2023-02-24T16:02:03.136Z,74.30
2023-02-24T16:04:31.384Z,73.47
2023-02-24T16:06:59.619Z,73.66
2023-02-24T16:09:39.283Z,74.38
2023-02-24T16:12:16.267Z,74.14
2023-02-24T16:14:46.142Z,74.22
2023-02-24T16:17:43.984Z,74.63
2023-02-24T16:20:18.728Z,74.23
2023-02-24T16:22:46.566Z,73.62
2023-02-24T16:25:17.722Z,74.61
2023-02-24T16:27:46.066Z,74.08
2023-02-24T16:30:22.751Z,73.95
2023-02-24T16:32:51.496Z,73.86
2023-02-24T16:35:20.422Z,74.29
2023-02-24T16:37:49.311Z,74.20
2023-02-24T16:40:31.607Z,74.36
2023-02-24T16:42:59.839Z,74.30
2023-02-24T16:45:29.816Z,73.84
2023-02-24T16:48:03.054Z,73.88
2023-02-24T16:50:35.973Z,74.19
2023-02-24T16:53:04.253Z,74.41
2023-02-24T16:55:32.898Z,74.17
2023-02-24T16:58:01.199Z,74.19
2023-02-24T17:00:29.458Z,74.77
2023-02-24T17:02:57.935Z,74.22
2023-02-24T17:05:28.980Z,74.22
2023-02-24T17:07:58.342Z,74.35
2023-02-24T17:10:26.962Z,74.00
2023-02-24T17:12:55.214Z,74.09
2023-02-24T17:15:25.179Z,74.04
2023-02-24T17:17:53.564Z,74.24
2023-02-24T17:20:23.060Z,73.80
2023-02-24T17:22:51.586Z,73.60
2023-02-24T17:25:28.847Z,73.77
2023-02-24T17:27:57.904Z,73.56
2023-02-24T17:30:29.285Z,73.93
2023-02-24T17:32:58.300Z,73.68
2023-02-24T17:35:26.899Z,73.32
2023-02-24T17:37:55.540Z,73.67
2023-02-24T17:40:24.121Z,72.96
2023-02-24T17:42:52.421Z,73.29
2023-02-24T17:45:21.124Z,73.95
2023-02-24T17:47:49.774Z,74.06
2023-02-24T17:50:18.096Z,74.20
2023-02-24T17:52:46.514Z,74.12
2023-02-24T17:55:15.111Z,73.82
2023-02-24T17:57:44.180Z,73.58
2023-02-24T18:00:13.598Z,74.24
2023-02-24T18:02:42.325Z,74.07
2023-02-24T18:05:11.239Z,74.46
2023-02-24T18:07:39.659Z,74.50
2023-02-24T18:10:08.878Z,74.88
2023-02-24T18:12:37.256Z,74.23
2023-02-24T18:15:09.472Z,74.30
2023-02-24T18:17:39.445Z,73.97
2023-02-24T18:20:09.912Z,73.90
2023-02-24T18:22:38.141Z,74.40
2023-02-24T18:25:07.092Z,74.01
2023-02-24T18:27:35.277Z,74.10
2023-02-24T18:30:04.419Z,74.10
2023-02-24T18:32:32.849Z,74.24
2023-02-24T18:35:01.238Z,73.92
2023-02-24T18:37:29.460Z,74.47
2023-02-24T18:39:57.699Z,74.35
2023-02-24T18:42:26.479Z,74.03
2023-02-24T18:44:54.692Z,74.03
2023-02-24T18:47:22.917Z,74.10
2023-02-24T18:49:51.140Z,73.15
2023-02-24T18:52:19.350Z,73.58
2023-02-24T18:54:49.487Z,73.54
2023-02-24T18:57:17.729Z,73.43
2023-02-24T18:59:46.162Z,73.61
2023-02-24T19:02:14.522Z,73.78
2023-02-24T19:04:42.882Z,73.88
2023-02-24T19:07:11.116Z,73.16
2023-02-24T19:09:41.637Z,73.46
2023-02-24T19:12:10.480Z,73.17
2023-02-24T19:14:38.779Z,73.43
2023-02-24T19:17:07.132Z,72.95
2023-02-24T19:19:35.462Z,72.93
2023-02-24T19:22:03.697Z,72.43
2023-02-24T19:24:32.984Z,72.42
2023-02-24T19:27:01.408Z,72.38
2023-02-24T19:29:30.970Z,72.50
2023-02-24T19:31:59.471Z,72.48
2023-02-24T19:34:27.829Z,72.41
2023-02-24T19:36:56.076Z,72.44
2023-02-24T19:39:24.281Z,72.22
2023-02-24T19:41:54.057Z,72.65
2023-02-24T19:44:22.306Z,72.38
2023-02-24T19:46:50.574Z,72.22
2023-02-24T19:49:18.832Z,72.16
2023-02-24T19:51:48.335Z,72.43
2023-02-24T19:54:17.078Z,72.65
2023-02-24T19:56:45.308Z,72.84
2023-02-24T19:59:13.546Z,72.52
2023-02-24T20:01:42.716Z,72.45
2023-02-24T20:04:11.476Z,71.86
2023-02-24T20:06:42.015Z,71.89
2023-02-24T20:09:15.921Z,71.58
2023-02-24T20:11:45.769Z,71.23
2023-02-24T20:14:15.601Z,71.40
2023-02-24T20:16:44.811Z,71.45
2023-02-24T20:19:14.653Z,71.18
2023-02-24T20:21:43.596Z,71.18
2023-02-24T20:24:16.141Z,71.35
2023-02-24T20:26:52.849Z,71.41
2023-02-24T20:29:22.621Z,71.25
2023-02-24T20:31:51.357Z,71.15
2023-02-24T20:34:19.892Z,70.91
2023-02-24T20:36:48.140Z,70.78
2023-02-24T20:39:16.399Z,70.24
2023-02-24T20:41:45.029Z,70.52
2023-02-24T20:44:13.494Z,70.39
2023-02-24T20:46:41.834Z,70.34
2023-02-24T20:49:15.460Z,70.57
2023-02-24T20:51:44.447Z,70.24
2023-02-24T20:54:14.567Z,70.01
2023-02-24T20:56:44.928Z,70.48
2023-02-24T20:59:18.997Z,70.06
2023-02-24T21:01:48.387Z,69.88
2023-02-24T21:04:20.063Z,70.03
2023-02-24T21:06:49.301Z,69.72
2023-02-24T21:09:17.678Z,69.81
2023-02-24T21:11:45.934Z,69.68
2023-02-24T21:14:17.142Z,69.82
2023-02-24T21:16:46.937Z,69.39
2023-02-24T21:19:15.289Z,69.09
2023-02-24T21:21:43.473Z,68.95
2023-02-24T21:24:11.695Z,68.85
2023-02-24T21:26:39.943Z,68.40
2023-02-24T21:29:08.621Z,68.32
2023-02-24T21:31:36.975Z,67.56
2023-02-24T21:34:05.340Z,67.19
2023-02-24T21:36:33.592Z,66.83
2023-02-24T21:39:01.777Z,66.52
2023-02-24T21:41:30.063Z,66.61
2023-02-24T21:44:01.309Z,66.67
2023-02-24T21:46:29.860Z,66.25
2023-02-24T21:49:01.542Z,65.82
2023-02-24T21:51:30.296Z,65.63
2023-02-24T21:53:59.359Z,65.91
2023-02-24T21:56:31.475Z,65.07
2023-02-24T21:59:02.779Z,65.20
2023-02-24T22:01:31.059Z,64.73
2023-02-24T22:04:02.140Z,64.82
2023-02-24T22:06:31.974Z,64.38
2023-02-24T22:09:02.134Z,64.54
2023-02-24T22:11:38.099Z,64.37
2023-02-24T22:14:12.355Z,63.59
2023-02-24T22:16:41.932Z,63.59
2023-02-24T22:19:10.566Z,63.12
2023-02-24T22:21:40.416Z,62.95
2023-02-24T22:24:09.815Z,63.52
2023-02-24T22:26:38.096Z,63.41
2023-02-24T22:29:06.412Z,63.22
2023-02-24T22:31:35.997Z,63.25
2023-02-24T22:34:05.251Z,63.45
2023-02-24T22:36:37.656Z,63.00
2023-02-24T22:39:07.394Z,63.00
2023-02-24T22:41:37.164Z,62.69
2023-02-24T22:44:07.260Z,62.02
2023-02-24T22:46:38.881Z,61.10
2023-02-24T22:49:07.683Z,61.42
2023-02-24T22:51:36.399Z,60.94
2023-02-24T22:54:05.877Z,61.09
2023-02-24T22:56:34.257Z,59.91
2023-02-24T22:59:02.524Z,60.31
2023-02-24T23:01:36.922Z,60.54
2023-02-24T23:04:08.300Z,60.50
2023-02-24T23:06:37.875Z,60.15
2023-02-24T23:09:08.125Z,60.04
2023-02-24T23:11:40.216Z,59.51
2023-02-24T23:14:14.539Z,59.40
2023-02-24T23:16:47.429Z,58.33
2023-02-24T23:19:18.688Z,58.53
2023-02-24T23:21:50.628Z,58.74
2023-02-24T23:24:19.739Z,58.26
2023-02-24T23:26:58.421Z,57.55
2023-02-24T23:29:27.791Z,58.78
2023-02-24T23:31:56.152Z,58.71
2023-02-24T23:34:25.491Z,59.28
2023-02-24T23:36:53.701Z,59.34
2023-02-24T23:39:24.420Z,60.01
2023-02-24T23:41:57.110Z,59.81
2023-02-24T23:44:26.427Z,60.05
2023-02-24T23:46:55.109Z,60.05
2023-02-24T23:49:23.330Z,59.43
2023-02-24T23:51:51.594Z,59.84
2023-02-24T23:54:21.183Z,59.39
2023-02-24T23:56:49.964Z,59.54
2023-02-24T23:59:18.288Z,60.06
